sensor_id;sensor_type;location;lat;lon;timestamp;pressure;altitude;pressure_sealevel;temperature
71630;BMP280;59479;51.902;8.212;2023-01-23T00:01:10;102880.38;;;4.40
71630;BMP280;59479;51.902;8.212;2023-01-23T00:03:36;102876.63;;;4.47
71630;BMP280;59479;51.902;8.212;2023-01-23T00:06:04;102874.44;;;4.51
71630;BMP280;59479;51.902;8.212;2023-01-23T00:08:30;102870.97;;;4.49
71630;BMP280;59479;51.902;8.212;2023-01-23T00:10:56;102877.28;;;4.44
71630;BMP280;59479;51.902;8.212;2023-01-23T00:13:21;102876.63;;;4.47
71630;BMP280;59479;51.902;8.212;2023-01-23T00:15:47;102870.38;;;4.53
71630;BMP280;59479;51.902;8.212;2023-01-23T00:18:13;102870.81;;;4.46
71630;BMP280;59479;51.902;8.212;2023-01-23T00:20:39;102872.59;;;4.49
71630;BMP280;59479;51.902;8.212;2023-01-23T00:23:05;102869.06;;;4.45
71630;BMP280;59479;51.902;8.212;2023-01-23T00:25:32;102875.94;;;4.49
71630;BMP280;59479;51.902;8.212;2023-01-23T00:30:28;102874.91;;;4.46
71630;BMP280;59479;51.902;8.212;2023-01-23T00:32:53;102879.03;;;4.45
71630;BMP280;59479;51.902;8.212;2023-01-23T00:35:19;102872.50;;;4.47
71630;BMP280;59479;51.902;8.212;2023-01-23T00:37:44;102872.59;;;4.49
71630;BMP280;59479;51.902;8.212;2023-01-23T00:40:10;102880.06;;;4.49
71630;BMP280;59479;51.902;8.212;2023-01-23T00:42:35;102874.56;;;4.40
71630;BMP280;59479;51.902;8.212;2023-01-23T00:45:01;102878.84;;;4.42
71630;BMP280;59479;51.902;8.212;2023-01-23T00:47:26;102877.50;;;4.34
71630;BMP280;59479;51.902;8.212;2023-01-23T00:49:52;102876.53;;;4.45
71630;BMP280;59479;51.902;8.212;2023-01-23T00:52:22;102871.66;;;4.47
71630;BMP280;59479;51.902;8.212;2023-01-23T00:54:47;102865.13;;;4.49
71630;BMP280;59479;51.902;8.212;2023-01-23T00:57:12;102865.31;;;4.52
71630;BMP280;59479;51.902;8.212;2023-01-23T00:59:37;102873.44;;;4.49
71630;BMP280;59479;51.902;8.212;2023-01-23T01:02:03;102868.78;;;4.41
71630;BMP280;59479;51.902;8.212;2023-01-23T01:04:28;102882.56;;;4.49
71630;BMP280;59479;51.902;8.212;2023-01-23T01:06:53;102882.22;;;4.43
71630;BMP280;59479;51.902;8.212;2023-01-23T01:09:19;102879.22;;;4.48
71630;BMP280;59479;51.902;8.212;2023-01-23T01:11:44;102890.31;;;4.53
71630;BMP280;59479;51.902;8.212;2023-01-23T01:14:10;102896.47;;;4.45
71630;BMP280;59479;51.902;8.212;2023-01-23T01:16:35;102903.44;;;4.51
71630;BMP280;59479;51.902;8.212;2023-01-23T01:19:02;102893.66;;;4.54
71630;BMP280;59479;51.902;8.212;2023-01-23T01:21:27;102908.41;;;4.51
71630;BMP280;59479;51.902;8.212;2023-01-23T01:23:53;102906.03;;;4.39
71630;BMP280;59479;51.902;8.212;2023-01-23T01:26:18;102910.47;;;4.43
71630;BMP280;59479;51.902;8.212;2023-01-23T01:28:47;102905.81;;;4.49
71630;BMP280;59479;51.902;8.212;2023-01-23T01:31:14;102904.13;;;4.48
71630;BMP280;59479;51.902;8.212;2023-01-23T01:33:41;102903.56;;;4.39
71630;BMP280;59479;51.902;8.212;2023-01-23T01:36:08;102903.41;;;4.36
71630;BMP280;59479;51.902;8.212;2023-01-23T01:38:34;102911.81;;;4.38
71630;BMP280;59479;51.902;8.212;2023-01-23T01:40:59;102907.59;;;4.37
71630;BMP280;59479;51.902;8.212;2023-01-23T01:43:26;102902.19;;;4.44
71630;BMP280;59479;51.902;8.212;2023-01-23T01:46:21;102898.84;;;4.44
71630;BMP280;59479;51.902;8.212;2023-01-23T01:49:00;102909.09;;;4.48
71630;BMP280;59479;51.902;8.212;2023-01-23T01:51:40;102914.84;;;4.47
71630;BMP280;59479;51.902;8.212;2023-01-23T01:54:16;102913.44;;;4.38
71630;BMP280;59479;51.902;8.212;2023-01-23T01:56:49;102911.81;;;4.38
71630;BMP280;59479;51.902;8.212;2023-01-23T01:59:17;102925.81;;;4.36
71630;BMP280;59479;51.902;8.212;2023-01-23T02:01:46;102918.88;;;4.45
71630;BMP280;59479;51.902;8.212;2023-01-23T02:04:11;102919.94;;;4.36
71630;BMP280;59479;51.902;8.212;2023-01-23T02:06:38;102930.78;;;4.36
71630;BMP280;59479;51.902;8.212;2023-01-23T02:09:15;102938.16;;;4.35
71630;BMP280;59479;51.902;8.212;2023-01-23T02:11:42;102938.06;;;4.33
71630;BMP280;59479;51.902;8.212;2023-01-23T02:14:07;102935.16;;;4.40
71630;BMP280;59479;51.902;8.212;2023-01-23T02:16:36;102930.56;;;4.46
71630;BMP280;59479;51.902;8.212;2023-01-23T02:19:13;102932.28;;;4.47
71630;BMP280;59479;51.902;8.212;2023-01-23T02:21:41;102925.59;;;4.46
71630;BMP280;59479;51.902;8.212;2023-01-23T02:24:15;102936.31;;;4.45
71630;BMP280;59479;51.902;8.212;2023-01-23T02:26:43;102942.44;;;4.37
71630;BMP280;59479;51.902;8.212;2023-01-23T02:29:10;102943.22;;;4.36
71630;BMP280;59479;51.902;8.212;2023-01-23T02:31:36;102936.72;;;4.38
71630;BMP280;59479;51.902;8.212;2023-01-23T02:34:03;102939.97;;;4.37
71630;BMP280;59479;51.902;8.212;2023-01-23T02:36:31;102936.31;;;4.45
71630;BMP280;59479;51.902;8.212;2023-01-23T02:39:12;102934.78;;;4.34
71630;BMP280;59479;51.902;8.212;2023-01-23T02:41:47;102942.03;;;4.44
71630;BMP280;59479;51.902;8.212;2023-01-23T02:44:24;102943.41;;;4.39
71630;BMP280;59479;51.902;8.212;2023-01-23T02:46:54;102940.25;;;4.42
71630;BMP280;59479;51.902;8.212;2023-01-23T02:49:20;102938.25;;;4.36
71630;BMP280;59479;51.902;8.212;2023-01-23T02:51:50;102942.34;;;4.36
71630;BMP280;59479;51.902;8.212;2023-01-23T02:54:16;102943.59;;;4.29
71630;BMP280;59479;51.902;8.212;2023-01-23T02:56:43;102953.56;;;4.29
71630;BMP280;59479;51.902;8.212;2023-01-23T02:59:08;102953.41;;;4.26
71630;BMP280;59479;51.902;8.212;2023-01-23T03:01:52;102952.63;;;4.27
71630;BMP280;59479;51.902;8.212;2023-01-23T03:04:18;102960.47;;;4.20
71630;BMP280;59479;51.902;8.212;2023-01-23T03:06:43;102957.34;;;4.23
71630;BMP280;59479;51.902;8.212;2023-01-23T03:09:12;102955.69;;;4.23
71630;BMP280;59479;51.902;8.212;2023-01-23T03:11:39;102958.63;;;4.31
71630;BMP280;59479;51.902;8.212;2023-01-23T03:14:06;102951.06;;;4.29
71630;BMP280;59479;51.902;8.212;2023-01-23T03:16:32;102946.28;;;4.32
71630;BMP280;59479;51.902;8.212;2023-01-23T03:18:59;102947.06;;;4.31
71630;BMP280;59479;51.902;8.212;2023-01-23T03:21:29;102953.56;;;4.29
71630;BMP280;59479;51.902;8.212;2023-01-23T03:23:55;102949.06;;;4.24
71630;BMP280;59479;51.902;8.212;2023-01-23T03:26:20;102952.63;;;4.27
71630;BMP280;59479;51.902;8.212;2023-01-23T03:28:45;102957.97;;;4.33
71630;BMP280;59479;51.902;8.212;2023-01-23T03:31:29;102956.94;;;4.30
71630;BMP280;59479;51.902;8.212;2023-01-23T03:33:55;102958.72;;;4.32
71630;BMP280;59479;51.902;8.212;2023-01-23T03:36:20;102961.13;;;4.31
71630;BMP280;59479;51.902;8.212;2023-01-23T03:38:45;102945.53;;;4.20
71630;BMP280;59479;51.902;8.212;2023-01-23T03:41:29;102949.38;;;4.28
71630;BMP280;59479;51.902;8.212;2023-01-23T03:43:55;102938.38;;;4.25
71630;BMP280;59479;51.902;8.212;2023-01-23T03:46:21;102940.06;;;4.26
71630;BMP280;59479;51.902;8.212;2023-01-23T03:48:46;102947.22;;;4.34
71630;BMP280;59479;51.902;8.212;2023-01-23T03:51:12;102943.88;;;4.34
71630;BMP280;59479;51.902;8.212;2023-01-23T03:53:37;102939.59;;;4.31
71630;BMP280;59479;51.902;8.212;2023-01-23T03:56:03;102933.94;;;4.34
71630;BMP280;59479;51.902;8.212;2023-01-23T03:58:28;102938.25;;;4.36
71630;BMP280;59479;51.902;8.212;2023-01-23T04:00:55;102934.03;;;4.35
71630;BMP280;59479;51.902;8.212;2023-01-23T04:03:20;102931.63;;;4.37
71630;BMP280;59479;51.902;8.212;2023-01-23T04:05:46;102934.78;;;4.34
71630;BMP280;59479;51.902;8.212;2023-01-23T04:08:11;102929.25;;;4.38
71630;BMP280;59479;51.902;8.212;2023-01-23T04:10:36;102927.50;;;4.37
71630;BMP280;59479;51.902;8.212;2023-01-23T04:13:02;102928.09;;;4.33
71630;BMP280;59479;51.902;8.212;2023-01-23T04:15:27;102930.69;;;4.35
71630;BMP280;59479;51.902;8.212;2023-01-23T04:17:53;102935.84;;;4.38
71630;BMP280;59479;51.902;8.212;2023-01-23T04:20:18;102927.09;;;4.44
71630;BMP280;59479;51.902;8.212;2023-01-23T04:22:43;102924.91;;;4.49
71630;BMP280;59479;51.902;8.212;2023-01-23T04:25:09;102929.13;;;4.50
71630;BMP280;59479;51.902;8.212;2023-01-23T04:27:34;102939.84;;;4.49
71630;BMP280;59479;51.902;8.212;2023-01-23T04:29:59;102944.63;;;4.46
71630;BMP280;59479;51.902;8.212;2023-01-23T04:32:25;102950.50;;;4.46
71630;BMP280;59479;51.902;8.212;2023-01-23T04:34:50;102955.63;;;4.49
71630;BMP280;59479;51.902;8.212;2023-01-23T04:37:16;102939.34;;;4.54
71630;BMP280;59479;51.902;8.212;2023-01-23T04:39:41;102955.81;;;4.52
71630;BMP280;59479;51.902;8.212;2023-01-23T04:42:07;102950.09;;;4.53
71630;BMP280;59479;51.902;8.212;2023-01-23T04:44:32;102957.06;;;4.58
71630;BMP280;59479;51.902;8.212;2023-01-23T04:46:57;102951.75;;;4.67
71630;BMP280;59479;51.902;8.212;2023-01-23T04:49:24;102951.16;;;4.71
71630;BMP280;59479;51.902;8.212;2023-01-23T04:51:50;102951.66;;;4.65
71630;BMP280;59479;51.902;8.212;2023-01-23T04:54:16;102951.47;;;4.62
71630;BMP280;59479;51.902;8.212;2023-01-23T04:56:42;102949.88;;;4.63
71630;BMP280;59479;51.902;8.212;2023-01-23T04:59:08;102958.28;;;4.65
71630;BMP280;59479;51.902;8.212;2023-01-23T05:01:33;102960.78;;;4.65
71630;BMP280;59479;51.902;8.212;2023-01-23T05:03:59;102954.25;;;4.67
71630;BMP280;59479;51.902;8.212;2023-01-23T05:06:24;102953.41;;;4.66
71630;BMP280;59479;51.902;8.212;2023-01-23T05:08:50;102944.97;;;4.64
71630;BMP280;59479;51.902;8.212;2023-01-23T05:11:15;102949.97;;;4.64
71630;BMP280;59479;51.902;8.212;2023-01-23T05:13:41;102950.75;;;4.51
71630;BMP280;59479;51.902;8.212;2023-01-23T05:16:07;102949.91;;;4.50
71630;BMP280;59479;51.902;8.212;2023-01-23T05:18:32;102953.13;;;4.62
71630;BMP280;59479;51.902;8.212;2023-01-23T05:20:58;102939.53;;;4.57
71630;BMP280;59479;51.902;8.212;2023-01-23T05:23:23;102953.13;;;4.62
71630;BMP280;59479;51.902;8.212;2023-01-23T05:25:48;102937.56;;;4.66
71630;BMP280;59479;51.902;8.212;2023-01-23T05:28:14;102950.91;;;4.66
71630;BMP280;59479;51.902;8.212;2023-01-23T05:30:39;102962.88;;;4.59
71630;BMP280;59479;51.902;8.212;2023-01-23T05:33:04;102962.41;;;4.64
71630;BMP280;59479;51.902;8.212;2023-01-23T05:35:30;102967.13;;;4.60
71630;BMP280;59479;51.902;8.212;2023-01-23T05:37:55;102982.25;;;4.63
71630;BMP280;59479;51.902;8.212;2023-01-23T05:40:21;102984.16;;;4.67
71630;BMP280;59479;51.902;8.212;2023-01-23T05:42:48;102990.47;;;4.62
71630;BMP280;59479;51.902;8.212;2023-01-23T05:45:14;102981.97;;;4.58
71630;BMP280;59479;51.902;8.212;2023-01-23T05:47:40;102984.75;;;4.63
71630;BMP280;59479;51.902;8.212;2023-01-23T05:50:06;102994.53;;;4.60
71630;BMP280;59479;51.902;8.212;2023-01-23T05:52:35;102984.38;;;4.57
71630;BMP280;59479;51.902;8.212;2023-01-23T05:55:01;102983.41;;;4.55
71630;BMP280;59479;51.902;8.212;2023-01-23T05:57:26;102993.47;;;4.57
71630;BMP280;59479;51.902;8.212;2023-01-23T05:59:51;102997.50;;;4.55
71630;BMP280;59479;51.902;8.212;2023-01-23T06:02:17;103000.56;;;4.51
71630;BMP280;59479;51.902;8.212;2023-01-23T06:04:42;103007.56;;;4.56
71630;BMP280;59479;51.902;8.212;2023-01-23T06:07:12;103010.31;;;4.60
71630;BMP280;59479;51.902;8.212;2023-01-23T06:09:38;103020.09;;;4.57
71630;BMP280;59479;51.902;8.212;2023-01-23T06:12:03;103007.91;;;4.62
71630;BMP280;59479;51.902;8.212;2023-01-23T06:14:29;103013.28;;;4.68
71630;BMP280;59479;51.902;8.212;2023-01-23T06:16:54;103010.09;;;4.70
71630;BMP280;59479;51.902;8.212;2023-01-23T06:19:19;103010.78;;;4.68
71630;BMP280;59479;51.902;8.212;2023-01-23T06:21:45;103014.34;;;4.71
71630;BMP280;59479;51.902;8.212;2023-01-23T06:24:10;103024.28;;;4.71
71630;BMP280;59479;51.902;8.212;2023-01-23T06:26:35;103021.81;;;4.71
71630;BMP280;59479;51.902;8.212;2023-01-23T06:29:01;103025.44;;;4.76
71630;BMP280;59479;51.902;8.212;2023-01-23T06:31:26;103025.34;;;4.75
71630;BMP280;59479;51.902;8.212;2023-01-23T06:33:54;103031.28;;;4.77
71630;BMP280;59479;51.902;8.212;2023-01-23T06:36:19;103028.78;;;4.77
71630;BMP280;59479;51.902;8.212;2023-01-23T06:38:44;103037.91;;;4.76
71630;BMP280;59479;51.902;8.212;2023-01-23T06:41:10;103043.34;;;4.71
71630;BMP280;59479;51.902;8.212;2023-01-23T06:43:35;103051.00;;;4.74
71630;BMP280;59479;51.902;8.212;2023-01-23T06:46:00;103059.38;;;4.74
71630;BMP280;59479;51.902;8.212;2023-01-23T06:48:26;103055.53;;;4.66
71630;BMP280;59479;51.902;8.212;2023-01-23T06:50:51;103060.63;;;4.68
71630;BMP280;59479;51.902;8.212;2023-01-23T06:53:17;103069.25;;;4.60
71630;BMP280;59479;51.902;8.212;2023-01-23T06:55:43;103061.69;;;4.58
71630;BMP280;59479;51.902;8.212;2023-01-23T06:58:08;103074.03;;;4.57
71630;BMP280;59479;51.902;8.212;2023-01-23T07:00:33;103064.63;;;4.66
71630;BMP280;59479;51.902;8.212;2023-01-23T07:02:59;103074.31;;;4.61
71630;BMP280;59479;51.902;8.212;2023-01-23T07:05:28;103085.25;;;4.51
71630;BMP280;59479;51.902;8.212;2023-01-23T07:07:53;103073.69;;;4.51
71630;BMP280;59479;51.902;8.212;2023-01-23T07:10:19;103076.53;;;4.44
71630;BMP280;59479;51.902;8.212;2023-01-23T07:12:44;103080.16;;;4.49
71630;BMP280;59479;51.902;8.212;2023-01-23T07:15:10;103088.03;;;4.42
71630;BMP280;59479;51.902;8.212;2023-01-23T07:17:35;103081.13;;;4.38
71630;BMP280;59479;51.902;8.212;2023-01-23T07:20:00;103085.25;;;4.51
71630;BMP280;59479;51.902;8.212;2023-01-23T07:22:26;103088.31;;;4.59
71630;BMP280;59479;51.902;8.212;2023-01-23T07:24:51;103094.44;;;4.52
71630;BMP280;59479;51.902;8.212;2023-01-23T07:27:16;103094.34;;;4.50
71630;BMP280;59479;51.902;8.212;2023-01-23T07:29:42;103106.34;;;4.43
71630;BMP280;59479;51.902;8.212;2023-01-23T07:32:07;103110.25;;;4.52
71630;BMP280;59479;51.902;8.212;2023-01-23T07:34:33;103111.50;;;4.58
71630;BMP280;59479;51.902;8.212;2023-01-23T07:36:58;103104.72;;;4.56
71630;BMP280;59479;51.902;8.212;2023-01-23T07:39:24;103110.66;;;4.58
71630;BMP280;59479;51.902;8.212;2023-01-23T07:41:49;103114.28;;;4.63
71630;BMP280;59479;51.902;8.212;2023-01-23T07:44:17;103116.69;;;4.61
71630;BMP280;59479;51.902;8.212;2023-01-23T07:46:43;103115.22;;;4.52
71630;BMP280;59479;51.902;8.212;2023-01-23T07:49:09;103120.41;;;4.55
71630;BMP280;59479;51.902;8.212;2023-01-23T07:51:34;103111.78;;;4.63
71630;BMP280;59479;51.902;8.212;2023-01-23T07:54:00;103107.19;;;4.56
71630;BMP280;59479;51.902;8.212;2023-01-23T07:56:25;103106.50;;;4.58
71630;BMP280;59479;51.902;8.212;2023-01-23T07:58:51;103124.06;;;4.60
71630;BMP280;59479;51.902;8.212;2023-01-23T08:01:17;103129.03;;;4.60
71630;BMP280;59479;51.902;8.212;2023-01-23T08:03:44;103116.78;;;4.63
71630;BMP280;59479;51.902;8.212;2023-01-23T08:06:09;103126.84;;;4.64
71630;BMP280;59479;51.902;8.212;2023-01-23T08:08:34;103122.72;;;4.65
71630;BMP280;59479;51.902;8.212;2023-01-23T08:11:03;103120.78;;;4.61
71630;BMP280;59479;51.902;8.212;2023-01-23T08:13:28;103125.97;;;4.64
71630;BMP280;59479;51.902;8.212;2023-01-23T08:15:56;103129.59;;;4.69
71630;BMP280;59479;51.902;8.212;2023-01-23T08:18:22;103128.34;;;4.62
71630;BMP280;59479;51.902;8.212;2023-01-23T08:20:58;103132.47;;;4.62
71630;BMP280;59479;51.902;8.212;2023-01-23T08:23:25;103139.19;;;4.63
71630;BMP280;59479;51.902;8.212;2023-01-23T08:25:55;103137.09;;;4.56
71630;BMP280;59479;51.902;8.212;2023-01-23T08:28:21;103141.50;;;4.60
71630;BMP280;59479;51.902;8.212;2023-01-23T08:30:46;103143.19;;;4.61
71630;BMP280;59479;51.902;8.212;2023-01-23T08:33:12;103150.50;;;4.58
71630;BMP280;59479;51.902;8.212;2023-01-23T08:35:37;103134.50;;;4.55
71630;BMP280;59479;51.902;8.212;2023-01-23T08:38:02;103144.94;;;4.62
71630;BMP280;59479;51.902;8.212;2023-01-23T08:40:29;103145.69;;;4.61
71630;BMP280;59479;51.902;8.212;2023-01-23T08:42:54;103147.63;;;4.65
71630;BMP280;59479;51.902;8.212;2023-01-23T08:45:20;103146.28;;;4.70
71630;BMP280;59479;51.902;8.212;2023-01-23T08:47:47;103149.53;;;4.69
71630;BMP280;59479;51.902;8.212;2023-01-23T08:50:12;103142.06;;;4.69
71630;BMP280;59479;51.902;8.212;2023-01-23T08:52:38;103146.66;;;4.63
71630;BMP280;59479;51.902;8.212;2023-01-23T08:55:03;103153.47;;;4.65
71630;BMP280;59479;51.902;8.212;2023-01-23T08:57:31;103149.16;;;4.63
71630;BMP280;59479;51.902;8.212;2023-01-23T09:00:05;103147.91;;;4.69
71630;BMP280;59479;51.902;8.212;2023-01-23T09:02:34;103143.00;;;4.71
71630;BMP280;59479;51.902;8.212;2023-01-23T09:05:00;103149.06;;;4.74
71630;BMP280;59479;51.902;8.212;2023-01-23T09:07:25;103148.97;;;4.73
71630;BMP280;59479;51.902;8.212;2023-01-23T09:09:56;103147.44;;;4.75
71630;BMP280;59479;51.902;8.212;2023-01-23T09:12:32;103144.75;;;4.72
71630;BMP280;59479;51.902;8.212;2023-01-23T09:15:20;103147.34;;;4.73
71630;BMP280;59479;51.902;8.212;2023-01-23T09:17:47;103155.66;;;4.74
71630;BMP280;59479;51.902;8.212;2023-01-23T09:20:16;103152.97;;;4.71
71630;BMP280;59479;51.902;8.212;2023-01-23T09:22:44;103163.63;;;4.68
71630;BMP280;59479;51.902;8.212;2023-01-23T09:25:19;103163.63;;;4.68
71630;BMP280;59479;51.902;8.212;2023-01-23T09:27:53;103165.25;;;4.68
71630;BMP280;59479;51.902;8.212;2023-01-23T09:30:19;103169.09;;;4.63
71630;BMP280;59479;51.902;8.212;2023-01-23T09:32:52;103162.78;;;4.68
71630;BMP280;59479;51.902;8.212;2023-01-23T09:35:20;103157.41;;;4.75
71630;BMP280;59479;51.902;8.212;2023-01-23T09:37:53;103156.25;;;4.70
71630;BMP280;59479;51.902;8.212;2023-01-23T09:40:56;103164.69;;;4.72
71630;BMP280;59479;51.902;8.212;2023-01-23T09:46:20;103171.75;;;4.79
71630;BMP280;59479;51.902;8.212;2023-01-23T09:49:13;103172.53;;;4.65
71630;BMP280;59479;51.902;8.212;2023-01-23T09:56:05;103174.84;;;4.75
71630;BMP280;59479;51.902;8.212;2023-01-23T09:59:38;103179.53;;;4.83
71630;BMP280;59479;51.902;8.212;2023-01-23T10:02:19;103178.97;;;4.74
71630;BMP280;59479;51.902;8.212;2023-01-23T10:18:03;103185.28;;;4.82
71630;BMP280;59479;51.902;8.212;2023-01-23T10:23:46;103186.22;;;4.84
71630;BMP280;59479;51.902;8.212;2023-01-23T10:26:21;103180.94;;;4.93
71630;BMP280;59479;51.902;8.212;2023-01-23T10:32:19;103175.81;;;4.90
71630;BMP280;59479;51.902;8.212;2023-01-23T10:35:22;103179.44;;;4.95
71630;BMP280;59479;51.902;8.212;2023-01-23T10:41:03;103185.38;;;4.97
71630;BMP280;59479;51.902;8.212;2023-01-23T10:46:59;103180.94;;;4.93
71630;BMP280;59479;51.902;8.212;2023-01-23T10:49:51;103181.72;;;4.92
71630;BMP280;59479;51.902;8.212;2023-01-23T10:53:05;103176.56;;;5.01
71630;BMP280;59479;51.902;8.212;2023-01-23T10:55:59;103170.97;;;4.93
71630;BMP280;59479;51.902;8.212;2023-01-23T10:58:41;103163.13;;;5.00
71630;BMP280;59479;51.902;8.212;2023-01-23T11:01:35;103170.53;;;4.98
71630;BMP280;59479;51.902;8.212;2023-01-23T11:04:22;103167.13;;;4.98
71630;BMP280;59479;51.902;8.212;2023-01-23T11:07:44;103167.72;;;4.94
71630;BMP280;59479;51.902;8.212;2023-01-23T11:14:14;103170.88;;;5.04
71630;BMP280;59479;51.902;8.212;2023-01-23T11:17:11;103156.41;;;4.99
71630;BMP280;59479;51.902;8.212;2023-01-23T11:19:55;103160.81;;;5.02
71630;BMP280;59479;51.902;8.212;2023-01-23T11:22:38;103158.41;;;5.04
71630;BMP280;59479;51.902;8.212;2023-01-23T11:28:29;103165.44;;;5.09
71630;BMP280;59479;51.902;8.212;2023-01-23T11:31:05;103151.13;;;5.07
71630;BMP280;59479;51.902;8.212;2023-01-23T11:34:11;103159.09;;;5.14
71630;BMP280;59479;51.902;8.212;2023-01-23T11:37:04;103150.47;;;5.09
71630;BMP280;59479;51.902;8.212;2023-01-23T11:40:03;103150.06;;;5.16
71630;BMP280;59479;51.902;8.212;2023-01-23T11:42:30;103154.09;;;5.14
71630;BMP280;59479;51.902;8.212;2023-01-23T11:45:02;103148.34;;;5.15
71630;BMP280;59479;51.902;8.212;2023-01-23T11:47:42;103151.38;;;5.24
71630;BMP280;59479;51.902;8.212;2023-01-23T11:50:21;103148.22;;;5.27
71630;BMP280;59479;51.902;8.212;2023-01-23T11:53:03;103146.00;;;5.31
71630;BMP280;59479;51.902;8.212;2023-01-23T12:08:27;103143.88;;;5.37
71630;BMP280;59479;51.902;8.212;2023-01-23T12:11:13;103127.94;;;5.35
71630;BMP280;59479;51.902;8.212;2023-01-23T12:16:43;103141.38;;;5.37
71630;BMP280;59479;51.902;8.212;2023-01-23T12:19:31;103140.00;;;5.42
71630;BMP280;59479;51.902;8.212;2023-01-23T12:22:13;103140.63;;;5.38
71630;BMP280;59479;51.902;8.212;2023-01-23T12:27:49;103138.00;;;5.49
71630;BMP280;59479;51.902;8.212;2023-01-23T12:33:10;103140.91;;;5.57
71630;BMP280;59479;51.902;8.212;2023-01-23T12:38:34;103139.88;;;5.53
71630;BMP280;59479;51.902;8.212;2023-01-23T12:44:20;103130.94;;;5.57
71630;BMP280;59479;51.902;8.212;2023-01-23T12:47:04;103124.31;;;5.57
71630;BMP280;59479;51.902;8.212;2023-01-23T12:49:50;103128.91;;;5.64
71630;BMP280;59479;51.902;8.212;2023-01-23T12:52:34;103127.84;;;5.61
71630;BMP280;59479;51.902;8.212;2023-01-23T12:55:05;103135.19;;;5.58
71630;BMP280;59479;51.902;8.212;2023-01-23T12:57:31;103140.50;;;5.64
71630;BMP280;59479;51.902;8.212;2023-01-23T13:03:02;103145.03;;;5.69
71630;BMP280;59479;51.902;8.212;2023-01-23T13:16:55;103151.63;;;5.69
71630;BMP280;59479;51.902;8.212;2023-01-23T13:19:30;103168.91;;;5.66
71630;BMP280;59479;51.902;8.212;2023-01-23T13:22:17;103161.59;;;5.69
71630;BMP280;59479;51.902;8.212;2023-01-23T13:24:48;103168.44;;;5.71
71630;BMP280;59479;51.902;8.212;2023-01-23T13:30:04;103165.25;;;5.74
71630;BMP280;59479;51.902;8.212;2023-01-23T13:35:55;103162.44;;;5.82
71630;BMP280;59479;51.902;8.212;2023-01-23T13:38:27;103157.34;;;5.81
71630;BMP280;59479;51.902;8.212;2023-01-23T13:51:19;103147.22;;;5.78
71630;BMP280;59479;51.902;8.212;2023-01-23T13:54:14;103151.50;;;5.80
71630;BMP280;59479;51.902;8.212;2023-01-23T13:57:29;103150.47;;;5.77
71630;BMP280;59479;51.902;8.212;2023-01-23T14:01:22;103153.72;;;5.76
71630;BMP280;59479;51.902;8.212;2023-01-23T14:04:23;103159.75;;;5.79
71630;BMP280;59479;51.902;8.212;2023-01-23T14:10:48;103156.78;;;5.85
71630;BMP280;59479;51.902;8.212;2023-01-23T14:14:18;103161.59;;;5.82
71630;BMP280;59479;51.902;8.212;2023-01-23T14:17:41;103164.09;;;5.82
71630;BMP280;59479;51.902;8.212;2023-01-23T14:20:42;103177.94;;;5.77
71630;BMP280;59479;51.902;8.212;2023-01-23T14:23:55;103180.34;;;5.75
71630;BMP280;59479;51.902;8.212;2023-01-23T14:27:17;103178.03;;;5.78
71630;BMP280;59479;51.902;8.212;2023-01-23T14:42:03;103191.88;;;5.73
71630;BMP280;59479;51.902;8.212;2023-01-23T14:49:04;103186.13;;;5.61
71630;BMP280;59479;51.902;8.212;2023-01-23T14:52:19;103187.16;;;5.65
71630;BMP280;59479;51.902;8.212;2023-01-23T14:55:36;103187.25;;;5.66
71630;BMP280;59479;51.902;8.212;2023-01-23T14:58:54;103187.81;;;5.62
71630;BMP280;59479;51.902;8.212;2023-01-23T15:01:51;103197.03;;;5.63
71630;BMP280;59479;51.902;8.212;2023-01-23T15:05:22;103201.53;;;5.69
71630;BMP280;59479;51.902;8.212;2023-01-23T15:11:47;103186.03;;;5.60
71630;BMP280;59479;51.902;8.212;2023-01-23T15:15:00;103191.00;;;5.60
71630;BMP280;59479;51.902;8.212;2023-01-23T15:22:00;103193.38;;;5.71
71630;BMP280;59479;51.902;8.212;2023-01-23T15:25:28;103188.75;;;5.77
71630;BMP280;59479;51.902;8.212;2023-01-23T15:29:00;103190.00;;;5.71
71630;BMP280;59479;51.902;8.212;2023-01-23T15:31:57;103196.72;;;5.72
71630;BMP280;59479;51.902;8.212;2023-01-23T15:45:42;103189.66;;;5.65
71630;BMP280;59479;51.902;8.212;2023-01-23T15:48:28;103189.84;;;5.68
71630;BMP280;59479;51.902;8.212;2023-01-23T15:54:27;103203.94;;;5.67
71630;BMP280;59479;51.902;8.212;2023-01-23T15:57:02;103195.00;;;5.71
71630;BMP280;59479;51.902;8.212;2023-01-23T16:00:22;103188.88;;;5.66
71630;BMP280;59479;51.902;8.212;2023-01-23T16:03:21;103191.34;;;5.66
71630;BMP280;59479;51.902;8.212;2023-01-23T16:06:14;103184.06;;;5.69
71630;BMP280;59479;51.902;8.212;2023-01-23T16:13:36;103172.59;;;5.58
71630;BMP280;59479;51.902;8.212;2023-01-23T16:16:36;103174.22;;;5.57
71630;BMP280;59479;51.902;8.212;2023-01-23T16:26:47;103175.97;;;5.45
71630;BMP280;59479;51.902;8.212;2023-01-23T16:36:18;103175.22;;;5.46
71630;BMP280;59479;51.902;8.212;2023-01-23T16:39:10;103181.91;;;5.47
71630;BMP280;59479;51.902;8.212;2023-01-23T16:47:00;103185.50;;;5.38
71630;BMP280;59479;51.902;8.212;2023-01-23T16:57:18;103200.94;;;5.45
71630;BMP280;59479;51.902;8.212;2023-01-23T17:00:48;103187.31;;;5.41
71630;BMP280;59479;51.902;8.212;2023-01-23T17:03:43;103195.84;;;5.44
71630;BMP280;59479;51.902;8.212;2023-01-23T17:06:20;103197.56;;;5.45
71630;BMP280;59479;51.902;8.212;2023-01-23T17:08:45;103196.97;;;5.49
71630;BMP280;59479;51.902;8.212;2023-01-23T17:11:17;103186.34;;;5.51
71630;BMP280;59479;51.902;8.212;2023-01-23T17:13:44;103185.75;;;5.55
71630;BMP280;59479;51.902;8.212;2023-01-23T17:16:09;103189.09;;;5.56
71630;BMP280;59479;51.902;8.212;2023-01-23T17:18:35;103193.72;;;5.50
71630;BMP280;59479;51.902;8.212;2023-01-23T17:21:04;103200.72;;;5.55
71630;BMP280;59479;51.902;8.212;2023-01-23T17:23:30;103201.41;;;5.53
71630;BMP280;59479;51.902;8.212;2023-01-23T17:25:56;103187.28;;;5.53
71630;BMP280;59479;51.902;8.212;2023-01-23T17:28:21;103196.31;;;5.51
71630;BMP280;59479;51.902;8.212;2023-01-23T17:30:49;103190.28;;;5.48
71630;BMP280;59479;51.902;8.212;2023-01-23T17:33:26;103189.34;;;5.46
71630;BMP280;59479;51.902;8.212;2023-01-23T17:35:54;103188.44;;;5.45
71630;BMP280;59479;51.902;8.212;2023-01-23T17:38:25;103191.53;;;5.54
71630;BMP280;59479;51.902;8.212;2023-01-23T17:40:53;103191.13;;;5.48